createdAt,value
2022-09-28T00:01:07.083Z,6.80
2022-09-28T00:03:57.640Z,6.83
2022-09-28T00:06:46.288Z,6.10
2022-09-28T00:09:34.195Z,5.90
2022-09-28T00:12:23.919Z,5.73
2022-09-28T00:15:12.380Z,6.33
2022-09-28T00:18:01.678Z,5.80
2022-09-28T00:20:49.564Z,5.33
2022-09-28T00:23:58.907Z,5.50
2022-09-28T00:26:49.348Z,5.60
2022-09-28T00:29:39.096Z,5.13
2022-09-28T00:32:28.095Z,6.27
2022-09-28T00:35:17.386Z,5.53
2022-09-28T00:38:05.251Z,5.97
2022-09-28T00:40:53.539Z,7.63
2022-09-28T00:43:41.657Z,5.47
2022-09-28T00:46:33.746Z,5.43
2022-09-28T00:49:25.480Z,5.20
2022-09-28T00:52:21.249Z,5.70
2022-09-28T00:55:13.469Z,7.80
2022-09-28T00:58:03.821Z,7.20
2022-09-28T01:00:51.767Z,4.87
2022-09-28T01:03:45.363Z,5.47
2022-09-28T01:06:37.288Z,5.13
2022-09-28T01:09:28.952Z,5.80
2022-09-28T01:12:16.905Z,5.60
2022-09-28T01:15:06.337Z,6.40
2022-09-28T01:18:06.781Z,5.23
2022-09-28T01:21:02.715Z,5.53
2022-09-28T01:24:20.796Z,5.70
2022-09-28T01:27:16.786Z,6.27
2022-09-28T01:30:08.833Z,8.43
2022-09-28T01:33:04.916Z,5.53
2022-09-28T01:35:57.006Z,6.43
2022-09-28T01:38:48.461Z,5.53
2022-09-28T01:41:38.578Z,5.47
2022-09-28T01:44:31.515Z,5.20
2022-09-28T01:47:23.309Z,5.10
2022-09-28T01:50:15.549Z,5.70
2022-09-28T01:53:09.539Z,6.37
2022-09-28T01:56:02.742Z,4.77
2022-09-28T01:58:56.388Z,5.53
2022-09-28T02:01:50.604Z,4.83
2022-09-28T02:04:44.055Z,5.57
2022-09-28T02:07:36.120Z,6.67
2022-09-28T02:10:28.396Z,6.77
2022-09-28T02:13:19.810Z,5.73
2022-09-28T02:16:15.674Z,4.97
2022-09-28T02:19:05.265Z,5.73
2022-09-28T02:21:59.384Z,7.83
2022-09-28T02:24:53.032Z,6.13
2022-09-28T02:27:51.731Z,5.33
2022-09-28T02:30:41.596Z,5.17
2022-09-28T02:33:34.273Z,8.13
2022-09-28T02:36:24.532Z,14.07
2022-09-28T02:39:16.277Z,5.47
2022-09-28T02:42:13.450Z,5.57
2022-09-28T02:45:16.034Z,5.40
2022-09-28T02:48:21.270Z,5.40
2022-09-28T02:51:28.484Z,4.87
2022-09-28T02:54:49.275Z,5.40
2022-09-28T02:57:49.274Z,5.97
2022-09-28T03:00:45.959Z,5.53
2022-09-28T03:03:42.829Z,5.70
2022-09-28T03:06:39.425Z,4.53
2022-09-28T03:09:32.164Z,6.40
2022-09-28T03:12:23.769Z,4.97
2022-09-28T03:15:15.536Z,5.90
2022-09-28T03:18:03.528Z,5.57
2022-09-28T03:20:51.289Z,6.00
2022-09-28T03:23:40.803Z,5.70
2022-09-28T03:26:29.075Z,4.90
2022-09-28T03:29:17.740Z,5.93
2022-09-28T03:32:08.292Z,6.23
2022-09-28T03:34:56.229Z,6.27
2022-09-28T03:37:44.160Z,5.47
2022-09-28T03:40:33.280Z,5.50
2022-09-28T03:43:20.977Z,5.13
2022-09-28T03:46:08.802Z,6.30
2022-09-28T03:49:02.238Z,6.47
2022-09-28T03:51:50.423Z,6.03
2022-09-28T03:54:38.304Z,6.63
2022-09-28T03:57:28.137Z,7.13
2022-09-28T04:00:16.384Z,7.30
2022-09-28T04:03:04.200Z,6.47
2022-09-28T04:05:53.035Z,6.53
2022-09-28T04:08:40.582Z,7.53
2022-09-28T04:11:38.557Z,7.80
2022-09-28T04:14:38.748Z,7.13
2022-09-28T04:17:26.355Z,7.17
2022-09-28T04:20:14.818Z,7.97
2022-09-28T04:23:17.756Z,8.50
2022-09-28T04:26:07.202Z,7.43
2022-09-28T04:29:13.076Z,7.67
2022-09-28T04:32:04.371Z,7.47
2022-09-28T04:34:58.082Z,7.33
2022-09-28T04:37:45.814Z,6.93
2022-09-28T04:40:33.723Z,6.93
2022-09-28T04:43:21.588Z,7.53
2022-09-28T04:46:10.555Z,7.43
2022-09-28T04:49:05.524Z,8.57
2022-09-28T04:52:06.045Z,6.60
2022-09-28T04:54:55.409Z,7.67
2022-09-28T04:57:45.011Z,7.50
2022-09-28T05:00:35.473Z,7.17
2022-09-28T05:03:46.472Z,6.60
2022-09-28T05:06:48.953Z,7.40
2022-09-28T05:09:38.620Z,7.33
2022-09-28T05:12:26.868Z,8.90
2022-09-28T05:15:14.692Z,7.83
2022-09-28T05:18:02.900Z,8.20
2022-09-28T05:21:12.880Z,8.30
2022-09-28T05:24:07.537Z,8.00
2022-09-28T05:26:57.710Z,8.90
2022-09-28T05:29:45.585Z,8.10
2022-09-28T05:32:54.078Z,10.03
2022-09-28T05:36:03.453Z,8.83
2022-09-28T05:38:51.295Z,9.17
2022-09-28T05:41:40.884Z,9.83
2022-09-28T05:44:29.026Z,11.30
2022-09-28T05:47:17.431Z,12.13
2022-09-28T05:50:06.985Z,11.43
2022-09-28T05:53:02.275Z,12.18
2022-09-28T05:55:50.067Z,12.07
2022-09-28T05:58:39.626Z,13.23
2022-09-28T06:01:28.830Z,15.63
2022-09-28T06:04:19.059Z,15.67
2022-09-28T06:07:08.961Z,18.77
2022-09-28T06:09:56.788Z,18.52
2022-09-28T06:12:59.257Z,17.85
2022-09-28T06:15:48.890Z,17.67
2022-09-28T06:18:37.106Z,19.27
2022-09-28T06:21:49.237Z,22.13
2022-09-28T06:24:37.094Z,19.90
2022-09-28T06:27:24.665Z,19.75
2022-09-28T06:30:13.928Z,17.38
2022-09-28T06:33:04.452Z,18.05
2022-09-28T06:35:52.260Z,16.00
2022-09-28T06:38:40.493Z,14.48
2022-09-28T06:41:28.580Z,15.30
2022-09-28T06:44:20.309Z,14.23
2022-09-28T06:47:42.720Z,12.60
2022-09-28T06:50:43.696Z,10.82
2022-09-28T06:54:00.578Z,10.60
2022-09-28T06:57:01.963Z,11.10
2022-09-28T06:59:50.089Z,11.32
2022-09-28T07:02:37.833Z,8.95
2022-09-28T07:05:47.347Z,7.65
2022-09-28T07:09:04.462Z,7.68
2022-09-28T07:12:27.477Z,7.13
2022-09-28T07:15:20.336Z,6.75
2022-09-28T07:18:09.197Z,6.93
2022-09-28T07:20:58.967Z,6.70
2022-09-28T07:23:53.926Z,6.93
2022-09-28T07:26:45.544Z,7.45
2022-09-28T07:29:41.534Z,6.97
2022-09-28T07:33:33.096Z,9.43
2022-09-28T07:36:44.962Z,6.40
2022-09-28T07:39:52.792Z,7.32
2022-09-28T07:42:40.379Z,6.72
2022-09-28T07:45:36.102Z,7.47
2022-09-28T07:48:24.564Z,5.10
2022-09-28T07:51:29.111Z,5.07
2022-09-28T07:54:36.377Z,5.80
2022-09-28T07:57:47.061Z,5.05
2022-09-28T08:01:00.131Z,5.47
2022-09-28T08:03:48.591Z,5.05
2022-09-28T08:06:36.069Z,4.93
2022-09-28T08:09:25.128Z,5.13
2022-09-28T08:12:41.441Z,4.22
2022-09-28T08:15:42.765Z,4.15
2022-09-28T08:18:41.672Z,3.85
2022-09-28T08:21:45.983Z,4.20
2022-09-28T08:24:33.991Z,4.05
2022-09-28T08:27:21.882Z,3.92
2022-09-28T08:30:11.909Z,7.47
2022-09-28T08:33:07.702Z,5.30
2022-09-28T08:36:06.089Z,3.72
2022-09-28T08:39:16.356Z,3.55
2022-09-28T08:42:36.813Z,3.17
2022-09-28T08:45:57.735Z,3.35
2022-09-28T08:49:26.382Z,2.67
2022-09-28T08:52:31.355Z,2.80
2022-09-28T08:55:46.454Z,2.42
2022-09-28T08:58:37.137Z,2.80
2022-09-28T09:01:32.388Z,2.83
2022-09-28T09:04:21.417Z,2.83
2022-09-28T09:07:57.867Z,2.30
2022-09-28T09:10:51.813Z,2.28
2022-09-28T09:14:28.181Z,2.20
2022-09-28T09:17:25.985Z,1.85
2022-09-28T09:20:42.416Z,2.30
2022-09-28T09:23:39.532Z,2.15
2022-09-28T09:26:39.108Z,2.10
2022-09-28T09:29:36.686Z,10.23
2022-09-28T09:32:48.573Z,2.47
2022-09-28T09:35:54.095Z,2.42
2022-09-28T09:39:15.367Z,2.25
2022-09-28T09:42:38.404Z,1.88
2022-09-28T09:46:04.223Z,3.05
2022-09-28T09:49:05.508Z,1.60
2022-09-28T09:52:00.326Z,1.70
2022-09-28T09:54:52.276Z,1.55
2022-09-28T09:58:04.291Z,1.65
2022-09-28T10:01:08.565Z,1.50
2022-09-28T10:04:21.545Z,1.63
2022-09-28T10:07:14.330Z,1.67
2022-09-28T10:10:04.297Z,1.60
2022-09-28T10:13:06.728Z,1.60
2022-09-28T10:15:56.303Z,1.75
2022-09-28T10:18:50.753Z,1.23
2022-09-28T10:22:07.303Z,1.00
2022-09-28T10:24:57.560Z,1.50
2022-09-28T10:27:52.682Z,1.27
2022-09-28T10:30:42.064Z,1.33
2022-09-28T10:33:31.952Z,1.13
2022-09-28T10:36:26.415Z,0.95
2022-09-28T10:39:29.749Z,1.48
2022-09-28T10:42:22.071Z,1.35
2022-09-28T10:45:22.219Z,1.00
2022-09-28T10:48:18.894Z,2.45
2022-09-28T10:51:08.917Z,0.75
2022-09-28T10:54:01.440Z,0.77
2022-09-28T10:57:29.125Z,1.15
2022-09-28T11:00:33.897Z,1.80
2022-09-28T11:03:53.014Z,0.90
2022-09-28T11:06:42.163Z,2.17
2022-09-28T11:09:37.041Z,0.95
2022-09-28T11:12:38.138Z,0.68
2022-09-28T11:15:28.902Z,0.75
2022-09-28T11:18:22.583Z,0.85
2022-09-28T11:21:15.095Z,2.30
2022-09-28T11:24:21.664Z,1.80
2022-09-28T11:27:22.024Z,0.98
2022-09-28T11:30:25.224Z,2.03
2022-09-28T11:33:34.057Z,3.40
2022-09-28T11:37:03.311Z,2.80
2022-09-28T11:40:02.811Z,1.48
2022-09-28T11:43:01.040Z,3.92
2022-09-28T11:45:56.200Z,1.67
2022-09-28T11:48:48.419Z,1.55
2022-09-28T11:51:38.948Z,1.30
2022-09-28T11:54:32.884Z,1.20
2022-09-28T11:57:27.536Z,1.10
2022-09-28T12:00:17.678Z,1.35
2022-09-28T12:03:12.272Z,1.17
2022-09-28T12:06:03.301Z,2.05
2022-09-28T12:08:55.086Z,1.30
2022-09-28T12:12:11.047Z,1.35
2022-09-28T12:15:14.248Z,1.13
2022-09-28T12:18:04.516Z,1.00
2022-09-28T12:21:05.025Z,2.97
2022-09-28T12:23:56.948Z,1.20
2022-09-28T12:26:50.300Z,1.58
2022-09-28T12:29:42.077Z,1.77
2022-09-28T12:32:35.908Z,2.40
2022-09-28T12:35:34.603Z,1.60
2022-09-28T12:39:30.658Z,1.70
2022-09-28T12:42:30.053Z,1.20
2022-09-28T12:45:38.483Z,2.17
2022-09-28T12:48:45.929Z,1.65
2022-09-28T12:51:49.094Z,1.75
2022-09-28T12:55:15.213Z,2.00
2022-09-28T12:58:17.379Z,2.15
2022-09-28T13:01:18.397Z,1.63
2022-09-28T13:04:36.264Z,1.58
2022-09-28T13:07:33.425Z,1.52
2022-09-28T13:10:32.772Z,1.40
2022-09-28T13:13:39.987Z,1.70
2022-09-28T13:16:35.377Z,1.75
2022-09-28T13:19:30.176Z,1.95
2022-09-28T13:22:27.547Z,3.92
2022-09-28T13:25:17.886Z,1.45
2022-09-28T13:28:06.927Z,1.90
2022-09-28T13:33:47.879Z,3.08
2022-09-28T13:36:47.140Z,1.75
2022-09-28T13:39:56.453Z,1.73
2022-09-28T13:43:04.334Z,2.50
2022-09-28T13:46:00.252Z,2.20
2022-09-28T13:48:56.070Z,2.53
2022-09-28T13:52:00.326Z,3.17
2022-09-28T13:55:04.213Z,2.80
2022-09-28T13:57:57.063Z,2.60
2022-09-28T14:00:51.328Z,3.25
2022-09-28T14:03:57.262Z,2.58
2022-09-28T14:06:49.434Z,2.70
2022-09-28T14:09:45.512Z,4.15
2022-09-28T14:12:48.809Z,5.28
2022-09-28T14:15:43.410Z,4.97
2022-09-28T14:18:35.615Z,6.32
2022-09-28T14:21:50.564Z,7.28
2022-09-28T14:24:51.988Z,5.18
2022-09-28T14:28:06.688Z,5.40
2022-09-28T14:30:58.185Z,4.03
2022-09-28T14:33:57.934Z,4.40
2022-09-28T14:37:08.157Z,5.95
2022-09-28T14:40:13.528Z,4.40
2022-09-28T14:43:29.667Z,5.03
2022-09-28T14:46:35.496Z,4.25
2022-09-28T14:49:47.571Z,5.28
2022-09-28T14:52:42.116Z,7.03
2022-09-28T14:55:35.270Z,6.70
2022-09-28T14:58:25.018Z,6.90
2022-09-28T15:01:20.205Z,6.57
2022-09-28T15:04:13.469Z,7.35
2022-09-28T15:07:01.297Z,7.40
2022-09-28T15:09:51.617Z,7.78
2022-09-28T15:12:38.884Z,10.38
2022-09-28T15:15:32.162Z,8.05
2022-09-28T15:18:59.822Z,5.97
2022-09-28T15:21:48.787Z,5.30
2022-09-28T15:24:37.078Z,4.93
2022-09-28T15:27:27.890Z,4.75
2022-09-28T15:30:26.865Z,4.68
2022-09-28T15:33:43.360Z,5.10
2022-09-28T15:36:33.674Z,8.52
2022-09-28T15:39:26.970Z,5.88
2022-09-28T15:42:16.538Z,5.40
2022-09-28T15:45:26.479Z,4.45
2022-09-28T15:48:21.587Z,4.85
2022-09-28T15:51:11.930Z,4.82
2022-09-28T15:54:02.930Z,5.50
2022-09-28T15:56:59.813Z,3.40
2022-09-28T15:59:56.982Z,3.97
2022-09-28T16:03:01.718Z,2.90
2022-09-28T16:05:52.100Z,3.97
2022-09-28T16:08:42.182Z,3.20
2022-09-28T16:11:37.990Z,3.65
2022-09-28T16:14:27.467Z,3.97
2022-09-28T16:17:22.581Z,2.90
2022-09-28T16:20:24.224Z,2.95
2022-09-28T16:23:21.522Z,3.75
2022-09-28T16:26:28.892Z,3.17
2022-09-28T16:29:26.668Z,4.50
2022-09-28T16:32:41.874Z,3.47
2022-09-28T16:35:32.820Z,3.22
2022-09-28T16:38:21.484Z,3.53
2022-09-28T16:41:10.112Z,3.22
2022-09-28T16:44:01.563Z,3.47
2022-09-28T16:46:49.342Z,2.58
2022-09-28T16:49:40.249Z,2.90
2022-09-28T16:52:42.924Z,3.33
2022-09-28T16:55:40.014Z,2.95
2022-09-28T16:58:28.851Z,3.38
2022-09-28T17:01:16.606Z,3.00
2022-09-28T17:04:04.508Z,3.65
2022-09-28T17:06:54.473Z,3.72
2022-09-28T17:09:44.413Z,3.92
2022-09-28T17:12:32.100Z,3.85
2022-09-28T17:15:19.814Z,4.10
2022-09-28T17:18:08.367Z,5.30
2022-09-28T17:21:05.657Z,6.90
2022-09-28T17:23:53.355Z,9.40
2022-09-28T17:26:44.438Z,10.98
2022-09-28T17:29:32.689Z,14.77
2022-09-28T18:31:27.695Z,8.52
2022-09-28T18:34:16.904Z,7.90
2022-09-28T18:37:05.289Z,11.73
2022-09-28T18:39:52.776Z,9.75
2022-09-28T18:42:40.643Z,7.95
2022-09-28T18:45:28.347Z,7.97
2022-09-28T18:48:15.688Z,8.02
2022-09-28T18:51:08.566Z,17.88
2022-09-28T18:53:58.977Z,8.75
2022-09-28T18:56:46.266Z,7.30
2022-09-28T18:59:33.608Z,7.28
2022-09-28T19:02:21.301Z,7.53
2022-09-28T19:05:09.387Z,8.63
2022-09-28T19:07:58.891Z,7.53
2022-09-28T19:10:48.630Z,7.28
2022-09-28T19:13:36.479Z,13.13
2022-09-28T19:16:25.884Z,13.68
2022-09-28T19:19:17.193Z,14.10
2022-09-28T19:22:05.443Z,19.05
2022-09-28T19:24:54.873Z,13.95
2022-09-28T19:27:42.501Z,15.15
2022-09-28T19:30:29.995Z,12.35
2022-09-28T19:33:17.564Z,10.43
2022-09-28T19:36:07.899Z,17.05
2022-09-28T19:38:57.030Z,18.07
2022-09-28T19:41:49.564Z,22.33
2022-09-28T19:44:37.342Z,67.27
2022-09-28T19:47:24.764Z,68.57
2022-09-28T19:50:12.779Z,64.93
2022-09-28T19:53:01.771Z,74.60
2022-09-28T19:55:52.842Z,43.30
2022-09-28T19:58:41.912Z,19.45
2022-09-28T20:01:29.786Z,14.97
2022-09-28T20:04:17.705Z,13.57
2022-09-28T20:07:05.468Z,11.97
2022-09-28T20:09:52.868Z,10.87
2022-09-28T20:12:42.226Z,10.80
2022-09-28T20:15:31.519Z,7.90
2022-09-28T20:18:19.315Z,15.70
2022-09-28T20:21:09.523Z,10.83
2022-09-28T20:23:57.613Z,8.73
2022-09-28T20:26:45.859Z,8.57
2022-09-28T20:29:33.709Z,8.13
2022-09-28T20:32:22.669Z,7.33
2022-09-28T20:35:10.898Z,6.30
2022-09-28T20:38:00.362Z,5.67
2022-09-28T20:40:48.599Z,5.83
2022-09-28T20:43:36.416Z,5.37
2022-09-28T20:46:25.558Z,5.47
2022-09-28T20:49:14.660Z,4.70
2022-09-28T20:52:02.587Z,5.37
2022-09-28T20:54:50.261Z,5.63
2022-09-28T20:57:37.572Z,5.53
2022-09-28T21:00:25.095Z,5.70
2022-09-28T21:03:12.379Z,7.13
2022-09-28T21:06:01.381Z,5.47
2022-09-28T21:08:49.618Z,6.03
2022-09-28T21:11:38.910Z,6.67
2022-09-28T21:14:26.840Z,7.20
2022-09-28T21:17:16.335Z,8.40
2022-09-28T21:20:04.886Z,8.13
2022-09-28T21:22:53.690Z,9.80
2022-09-28T21:25:41.482Z,13.97
2022-09-28T21:28:28.935Z,6.60
2022-09-28T21:31:16.261Z,6.47
2022-09-28T21:34:03.813Z,10.00
2022-09-28T21:36:52.675Z,9.37
2022-09-28T21:39:41.337Z,10.43
2022-09-28T21:42:28.950Z,10.47
2022-09-28T21:45:17.356Z,11.00
2022-09-28T21:48:04.705Z,10.23
2022-09-28T21:50:56.806Z,10.10
2022-09-28T21:53:44.632Z,9.77
2022-09-28T21:56:33.680Z,10.17
2022-09-28T21:59:21.445Z,11.23
2022-09-28T22:02:10.074Z,10.10
2022-09-28T22:04:58.059Z,8.43
2022-09-28T22:07:45.798Z,9.13
2022-09-28T22:10:33.298Z,8.33
2022-09-28T22:13:21.944Z,7.83
2022-09-28T22:16:10.817Z,8.50
2022-09-28T22:18:58.698Z,10.13
2022-09-28T22:21:46.006Z,8.87
2022-09-28T22:24:33.352Z,9.77
2022-09-28T22:27:20.713Z,9.03
2022-09-28T22:30:10.757Z,8.13
2022-09-28T22:32:58.040Z,8.50
2022-09-28T22:35:46.305Z,7.47
2022-09-28T22:38:34.259Z,7.67
2022-09-28T22:41:23.025Z,7.80
2022-09-28T22:44:10.807Z,8.43
2022-09-28T22:46:59.572Z,10.27
2022-09-28T22:49:47.439Z,8.33
2022-09-28T22:52:34.711Z,8.43
2022-09-28T22:55:22.084Z,9.33
2022-09-28T22:58:09.516Z,7.23
2022-09-28T23:00:57.904Z,6.40
2022-09-28T23:03:47.569Z,6.47
2022-09-28T23:06:35.107Z,6.27
2022-09-28T23:09:22.403Z,6.50
2022-09-28T23:12:09.608Z,5.83
2022-09-28T23:14:56.835Z,5.87
2022-09-28T23:17:44.191Z,7.77
2022-09-28T23:20:33.070Z,7.13
2022-09-28T23:23:20.457Z,8.20
2022-09-28T23:26:13.072Z,9.27
2022-09-28T23:29:01.089Z,8.37
2022-09-28T23:31:48.442Z,12.40
2022-09-28T23:34:36.052Z,14.63
2022-09-28T23:37:24.694Z,15.23
2022-09-28T23:40:12.240Z,12.37
2022-09-28T23:43:00.227Z,12.60
2022-09-28T23:45:47.584Z,11.40
2022-09-28T23:48:35.559Z,11.23
2022-09-28T23:51:22.876Z,10.77
2022-09-28T23:54:11.731Z,12.43
2022-09-28T23:56:59.201Z,11.03
2022-09-28T23:59:46.477Z,12.57
